Airfield :
LOGIN :

Register | Disclaimer

   EN    FR    IT 

 










Legend :    VFR   Marginal VFR   IFR   Intensive IFR   Very Intensive IFR
Visi :
Ceiling :
>= 8 km
>= 3000ft
5 to 8 km
1000 to 3000 ft
1500m to 5 km
500 to 1000 ft
800 to 1500m
200 to 500 ft
< 800m
< 200 ft
Symbols :   Thunderstorms  Fog  Heavy snow  Heavy precipitations  Wind > 20 kt
SIGMETs :     Misc.  Thunderstorms  Icing  Turbulence  Mountain Waves  Volcanic Ashes







- Airport Elevation : 228 ft
- IATA code : OPO


LPPR - Porto Fr. Sa Carneiro

CURRENT METAR :
  • 150730Z 18016KT 4500 -RADZ BR FEW003 BKN005 13/12 Q1024

EXPIRED METARs :
  • 150700Z 18015KT 6000 -RA FEW004 SCT006 BKN011 13/12 Q1024
  • 150630Z 18016KT 4500 -RA BR FEW004 SCT007 BKN011 13/13 Q1024
  • 150600Z 19015KT 6000 -RA SCT008 BKN011 BKN020 13/13 Q1024
  • 150530Z 18016KT 6000 -RA FEW008 BKN011 BKN020 13/12 Q1023
  • 150500Z 18013KT 8000 -RA FEW008 BKN011 BKN020 14/12 Q1023

TAF TAF LPPR
Valid from the 15 at 06:00 until the 16 at 06:00 UTC


150500Z 1506/1606 18015KT 6000 -RA FEW008 BKN015
BECMG 1515/1518 21020KT 3000 RA BR SCT004 BKN008
BECMG 1518/1520 29010KT
BECMG 1520/1523 26005KT 9999 NSW SCT015
PROB40
TEMPO 1520/1606 8000 SHRA BKN012 FEW020TCU
No reported NOTAMs for that airfield.



MET'MAP, your aeronautical weather chart ! - Copyright ORBIFLY December 2007 - Disclaimer

ORBIFLY MET'MAP TEAM :

Programming & Development : Alexandra Zaïnal
Concept & Development : Baudouin d'Aumeries
Co-Development & Prog : Marc-Olivier Méhu
Technical & hardware support : Manuel Goepfert

Contact : metmap@orbifly.com




SOURCES & CREDITS :

   NOAA